Time;durP1;ratioP1;P1;durP2;ratioP2;P2;SDS_P1;SDS_P2;PMS_P1;PMS_P2;Temp;Humidity;BMP_temperature;BMP_pressure;BME280_temperature;BME280_humidity;BME280_pressure;Samples;Min_cycle;Max_cycle;Signal;HPM_P1;HPM_P2
2022/04/29 00:01:17;;;;;;;;;;;19.60;50.80;;;;;;5065912;28;19956;-75
2022/04/29 00:03:42;;;;;;;;;;;19.60;50.80;;;;;;5049758;28;19920;-75
2022/04/29 00:06:08;;;;;;;;;;;19.60;50.80;;;;;;5047845;28;20401;-75
2022/04/29 00:08:33;;;;;;;;;;;19.60;50.80;;;;;;5033569;28;19924;-75
2022/04/29 00:10:59;;;;;;;;;;;19.60;50.70;;;;;;5048457;28;19932;-76
2022/04/29 00:13:24;;;;;;;;;;;19.60;50.70;;;;;;5042297;28;19920;-75
2022/04/29 00:15:50;;;;;;;;;;;19.60;50.70;;;;;;5029427;28;19974;-75
2022/04/29 00:18:16;;;;;;;;;;;19.60;50.70;;;;;;5031828;28;19972;-76
2022/04/29 00:20:42;;;;;;;;;;;19.60;50.70;;;;;;5061697;28;19928;-75
2022/04/29 00:23:08;;;;;;;;;;;19.60;50.60;;;;;;5067392;28;19927;-76
2022/04/29 00:25:33;;;;;;;;;;;19.60;50.60;;;;;;5068963;28;20287;-75
2022/04/29 00:27:59;;;;;;;;;;;19.50;50.50;;;;;;5049110;28;20011;-75
2022/04/29 00:30:24;;;;;;;;;;;19.60;50.60;;;;;;5043639;28;20302;-75
2022/04/29 00:32:50;;;;;;;;;;;19.60;50.60;;;;;;5035829;28;20383;-75
2022/04/29 00:35:15;;;;;;;;;;;19.60;50.50;;;;;;5049041;28;20411;-76
2022/04/29 00:37:45;;;;;;;;;;;19.60;50.50;;;;;;5048230;28;20036;-76
2022/04/29 00:40:12;;;;;;;;;;;19.60;50.50;;;;;;5041400;28;20047;-77
2022/04/29 00:42:37;;;;;;;;;;;19.60;50.50;;;;;;5035159;28;19920;-76
2022/04/29 00:45:03;;;;;;;;;;;19.60;50.50;;;;;;5030641;28;19931;-75
2022/04/29 00:47:29;;;;;;;;;;;19.60;50.40;;;;;;5039569;28;20010;-75
2022/04/29 00:49:54;;;;;;;;;;;19.50;50.40;;;;;;5042709;28;19925;-76
2022/04/29 00:52:20;;;;;;;;;;;19.60;50.40;;;;;;5045348;28;19924;-75
2022/04/29 00:54:49;;;;;;;;;;;19.60;50.40;;;;;;5043406;28;19932;-76
2022/04/29 00:57:17;;;;;;;;;;;19.50;50.30;;;;;;5067496;28;20009;-76
2022/04/29 00:59:47;;;;;;;;;;;19.60;50.30;;;;;;5064359;28;19965;-75
2022/04/29 01:02:13;;;;;;;;;;;19.60;50.30;;;;;;5041643;28;19919;-77
2022/04/29 01:04:42;;;;;;;;;;;19.50;50.30;;;;;;5033369;28;19920;-75
2022/04/29 01:07:07;;;;;;;;;;;19.50;50.20;;;;;;5048449;28;19924;-75
2022/04/29 01:09:33;;;;;;;;;;;19.50;50.20;;;;;;5048893;28;19927;-76
2022/04/29 01:11:58;;;;;;;;;;;19.60;50.30;;;;;;5030070;28;19924;-78
2022/04/29 01:14:24;;;;;;;;;;;19.60;50.30;;;;;;5038656;28;19967;-77
2022/04/29 01:16:49;;;;;;;;;;;19.50;50.30;;;;;;5018830;28;20009;-75
2022/04/29 01:19:15;;;;;;;;;;;19.60;50.60;;;;;;5044465;28;19943;-78
2022/04/29 01:21:41;;;;;;;;;;;19.60;50.40;;;;;;5049358;28;20041;-74
2022/04/29 01:24:07;;;;;;;;;;;19.60;50.40;;;;;;5046904;28;20212;-76
2022/04/29 01:26:33;;;;;;;;;;;19.60;50.40;;;;;;5049129;28;20062;-76
2022/04/29 01:28:59;;;;;;;;;;;19.60;50.40;;;;;;5047137;28;20527;-77
2022/04/29 01:31:24;;;;;;;;;;;19.60;51.30;;;;;;5031842;28;19925;-74
2022/04/29 01:33:50;;;;;;;;;;;19.60;50.50;;;;;;5030442;28;20379;-81
2022/04/29 01:36:16;;;;;;;;;;;19.60;50.50;;;;;;5063490;28;19927;-75
2022/04/29 01:38:41;;;;;;;;;;;19.60;50.50;;;;;;5048580;28;19920;-81
2022/04/29 01:41:07;;;;;;;;;;;19.60;50.60;;;;;;5048203;28;20347;-75
2022/04/29 01:43:33;;;;;;;;;;;19.60;50.60;;;;;;5048297;28;19931;-76
2022/04/29 01:45:59;;;;;;;;;;;19.60;50.60;;;;;;5065353;28;19928;-76
2022/04/29 01:48:25;;;;;;;;;;;19.50;50.50;;;;;;5048688;28;19963;-78
2022/04/29 01:50:50;;;;;;;;;;;19.60;50.60;;;;;;5045866;28;20371;-76
2022/04/29 01:53:16;;;;;;;;;;;19.50;50.60;;;;;;5049076;28;19921;-74
2022/04/29 01:55:42;;;;;;;;;;;19.50;50.60;;;;;;5046588;28;20007;-74
2022/04/29 01:58:07;;;;;;;;;;;19.60;50.60;;;;;;5032031;28;19916;-75
2022/04/29 02:00:33;;;;;;;;;;;19.50;50.60;;;;;;5045765;28;19931;-75
2022/04/29 02:02:58;;;;;;;;;;;19.50;50.60;;;;;;5045637;28;20434;-75
2022/04/29 02:05:24;;;;;;;;;;;19.50;50.50;;;;;;5047186;28;19920;-75
2022/04/29 02:07:49;;;;;;;;;;;19.60;51.40;;;;;;5047126;28;20011;-76
2022/04/29 02:10:15;;;;;;;;;;;19.60;50.60;;;;;;5046245;28;19928;-77
2022/04/29 02:12:41;;;;;;;;;;;19.60;50.60;;;;;;5047801;28;20042;-75
2022/04/29 02:15:07;;;;;;;;;;;19.50;50.60;;;;;;5030135;28;19931;-76
2022/04/29 02:17:33;;;;;;;;;;;19.50;50.50;;;;;;5040397;28;20023;-74
2022/04/29 02:19:58;;;;;;;;;;;19.50;50.50;;;;;;5046594;28;20110;-75
2022/04/29 02:22:23;;;;;;;;;;;19.50;50.50;;;;;;5030911;28;19927;-75
2022/04/29 02:24:49;;;;;;;;;;;19.50;50.50;;;;;;5046360;28;19932;-74
2022/04/29 02:27:14;;;;;;;;;;;19.50;50.50;;;;;;5043175;28;19920;-74
2022/04/29 02:29:40;;;;;;;;;;;19.50;50.50;;;;;;5045620;28;19924;-75
2022/04/29 02:32:06;;;;;;;;;;;19.60;50.60;;;;;;5041676;28;19924;-76
2022/04/29 02:34:31;;;;;;;;;;;19.50;50.50;;;;;;5045782;28;19920;-75
2022/04/29 02:36:56;;;;;;;;;;;19.50;50.50;;;;;;5064600;28;19924;-76
2022/04/29 02:39:22;;;;;;;;;;;19.50;50.50;;;;;;5038486;28;20479;-75
2022/04/29 02:41:48;;;;;;;;;;;19.50;50.40;;;;;;5045851;28;19924;-75
2022/04/29 02:44:13;;;;;;;;;;;19.50;50.40;;;;;;5047803;28;19920;-74
2022/04/29 02:47:06;;;;;;;;;;;19.50;50.40;;;;;;5045695;28;19924;-76
2022/04/29 02:49:24;;;;;;;;;;;19.50;50.40;;;;;;5047014;28;19931;-75
2022/04/29 02:51:50;;;;;;;;;;;19.50;50.40;;;;;;5047531;28;19920;-76
2022/04/29 02:54:16;;;;;;;;;;;19.50;50.40;;;;;;5065038;28;19921;-75
2022/04/29 02:56:41;;;;;;;;;;;19.50;50.30;;;;;;5033729;28;19928;-75
2022/04/29 02:59:07;;;;;;;;;;;19.50;50.30;;;;;;5025098;28;19921;-74
2022/04/29 03:01:33;;;;;;;;;;;19.50;50.30;;;;;;5041617;28;19931;-74
2022/04/29 03:03:59;;;;;;;;;;;19.50;50.30;;;;;;5060222;28;19926;-86
2022/04/29 03:06:25;;;;;;;;;;;19.50;50.30;;;;;;5048743;28;20022;-75
2022/04/29 03:08:50;;;;;;;;;;;19.50;50.30;;;;;;5065428;28;19931;-76
2022/04/29 03:11:15;;;;;;;;;;;19.50;50.50;;;;;;5066279;28;19924;-75
2022/04/29 03:13:41;;;;;;;;;;;19.50;50.50;;;;;;5034290;28;19925;-80
2022/04/29 03:16:08;;;;;;;;;;;19.50;50.70;;;;;;5045163;28;20368;-74
2022/04/29 03:18:33;;;;;;;;;;;19.50;50.70;;;;;;5033966;28;20441;-77
2022/04/29 03:20:59;;;;;;;;;;;19.50;50.70;;;;;;5038298;28;19982;-76
2022/04/29 03:23:25;;;;;;;;;;;19.50;50.60;;;;;;5049188;28;19975;-78
2022/04/29 03:25:50;;;;;;;;;;;19.50;50.60;;;;;;5053569;28;19966;-80
2022/04/29 03:28:16;;;;;;;;;;;19.60;50.70;;;;;;5036278;28;20379;-79
2022/04/29 03:30:42;;;;;;;;;;;19.60;50.70;;;;;;5035724;28;19931;-77
2022/04/29 03:33:08;;;;;;;;;;;19.50;50.50;;;;;;5035970;28;21533;-78
2022/04/29 03:35:43;;;;;;;;;;;19.60;50.60;;;;;;5047743;28;20027;-82
2022/04/29 03:38:09;;;;;;;;;;;19.60;50.60;;;;;;5028158;28;20019;-80
2022/04/29 03:40:35;;;;;;;;;;;19.60;50.60;;;;;;5061380;28;20447;-79
2022/04/29 03:43:00;;;;;;;;;;;19.60;50.60;;;;;;5054988;28;19928;-78
2022/04/29 03:45:26;;;;;;;;;;;19.60;50.60;;;;;;5035259;28;19928;-79
2022/04/29 03:47:53;;;;;;;;;;;19.60;50.50;;;;;;5036260;28;19928;-76
2022/04/29 03:50:19;;;;;;;;;;;19.60;50.60;;;;;;5037819;28;20448;-76
2022/04/29 03:52:49;;;;;;;;;;;19.60;50.50;;;;;;5025767;28;20467;-79
2022/04/29 03:55:15;;;;;;;;;;;19.60;50.50;;;;;;5034211;28;20015;-74
2022/04/29 03:57:41;;;;;;;;;;;19.60;50.40;;;;;;5041419;28;19920;-73
2022/04/29 04:00:08;;;;;;;;;;;19.60;50.50;;;;;;5054940;28;20323;-74
2022/04/29 04:02:33;;;;;;;;;;;19.60;50.50;;;;;;5035911;28;19925;-78
2022/04/29 04:04:59;;;;;;;;;;;19.70;50.40;;;;;;5049473;28;19921;-81
2022/04/29 04:07:24;;;;;;;;;;;19.60;50.30;;;;;;5040211;28;19967;-78
2022/04/29 04:09:50;;;;;;;;;;;19.60;50.30;;;;;;5036612;28;19924;-77
2022/04/29 04:12:16;;;;;;;;;;;19.60;50.30;;;;;;5027392;28;19974;-80
2022/04/29 04:14:42;;;;;;;;;;;19.60;50.50;;;;;;5011292;28;19925;-82
2022/04/29 04:17:07;;;;;;;;;;;19.60;50.50;;;;;;5029553;28;20337;-76
2022/04/29 04:19:34;;;;;;;;;;;19.60;50.30;;;;;;5030894;28;19925;-75
2022/04/29 04:21:59;;;;;;;;;;;19.60;50.20;;;;;;5050825;28;20033;-79
2022/04/29 04:24:25;;;;;;;;;;;19.60;50.40;;;;;;5045373;28;20407;-77
2022/04/29 04:26:50;;;;;;;;;;;19.60;50.50;;;;;;5030125;28;19924;-76
2022/04/29 04:29:16;;;;;;;;;;;19.60;50.40;;;;;;5029070;28;20409;-74
2022/04/29 04:31:41;;;;;;;;;;;19.60;50.40;;;;;;5011846;28;20015;-74
2022/04/29 04:36:52;;;;;;;;;;;19.60;50.30;;;;;;5040523;28;19925;-79
2022/04/29 04:39:18;;;;;;;;;;;19.60;50.20;;;;;;5029555;28;19921;-78
2022/04/29 04:41:43;;;;;;;;;;;19.60;50.20;;;;;;5036032;28;19921;-78
2022/04/29 04:44:09;;;;;;;;;;;19.60;50.20;;;;;;5037004;28;19930;-78
2022/04/29 04:46:35;;;;;;;;;;;19.60;50.30;;;;;;5026345;28;21736;-74
2022/04/29 04:49:01;;;;;;;;;;;19.60;50.20;;;;;;5027081;28;19935;-79
2022/04/29 04:51:26;;;;;;;;;;;19.60;50.20;;;;;;5045867;28;19925;-81
2022/04/29 04:53:52;;;;;;;;;;;19.60;50.20;;;;;;5048788;28;19924;-76
2022/04/29 04:56:17;;;;;;;;;;;19.60;50.30;;;;;;5025363;28;21464;-75
2022/04/29 04:58:43;;;;;;;;;;;19.60;50.30;;;;;;5025606;28;19943;-74
2022/04/29 05:01:08;;;;;;;;;;;19.60;50.20;;;;;;5024317;28;20006;-75
2022/04/29 05:03:34;;;;;;;;;;;19.50;50.30;;;;;;5033639;28;20394;-76
2022/04/29 05:05:59;;;;;;;;;;;19.60;50.30;;;;;;5015586;28;19935;-74
2022/04/29 05:08:24;;;;;;;;;;;19.50;50.10;;;;;;5054993;28;20473;-74
2022/04/29 05:10:50;;;;;;;;;;;19.60;50.00;;;;;;5031985;28;19928;-74
2022/04/29 05:13:16;;;;;;;;;;;19.60;50.10;;;;;;5030232;28;19966;-74
2022/04/29 05:15:42;;;;;;;;;;;19.60;50.10;;;;;;5038544;28;19925;-74
2022/04/29 05:18:08;;;;;;;;;;;19.60;50.10;;;;;;5027480;28;19928;-73
2022/04/29 05:20:34;;;;;;;;;;;19.60;50.10;;;;;;5036229;28;20007;-75
2022/04/29 05:23:00;;;;;;;;;;;19.60;50.10;;;;;;5010847;28;20027;-75
2022/04/29 05:25:25;;;;;;;;;;;19.60;50.10;;;;;;5029880;28;20007;-75
2022/04/29 05:27:51;;;;;;;;;;;19.60;50.10;;;;;;5036580;28;19924;-74
2022/04/29 05:30:16;;;;;;;;;;;19.70;50.10;;;;;;5028946;28;19923;-72
2022/04/29 05:32:42;;;;;;;;;;;19.70;50.00;;;;;;5028958;28;19921;-79
2022/04/29 05:35:08;;;;;;;;;;;19.70;50.00;;;;;;5032760;28;19983;-73
2022/04/29 05:37:34;;;;;;;;;;;19.70;50.00;;;;;;5027776;28;19921;-74
2022/04/29 05:42:44;;;;;;;;;;;19.70;50.10;;;;;;5029425;28;19921;-74
2022/04/29 05:45:09;;;;;;;;;;;19.80;50.10;;;;;;5025667;28;21333;-74
2022/04/29 05:47:35;;;;;;;;;;;19.80;50.10;;;;;;5022182;28;19960;-74
2022/04/29 05:50:00;;;;;;;;;;;19.80;50.10;;;;;;5028612;28;19925;-77
2022/04/29 05:52:26;;;;;;;;;;;19.80;50.20;;;;;;5019682;28;20072;-76
2022/04/29 05:54:51;;;;;;;;;;;19.80;50.10;;;;;;5032959;28;19987;-76
2022/04/29 05:57:17;;;;;;;;;;;19.80;50.10;;;;;;5036142;28;19932;-73
2022/04/29 05:59:42;;;;;;;;;;;19.80;50.10;;;;;;5035266;28;19925;-82
2022/04/29 06:02:08;;;;;;;;;;;19.80;49.90;;;;;;5024171;28;20739;-74
2022/04/29 06:04:34;;;;;;;;;;;19.80;49.90;;;;;;5028785;28;19921;-75
2022/04/29 06:06:59;;;;;;;;;;;19.80;49.90;;;;;;5032971;28;19952;-73
2022/04/29 06:09:25;;;;;;;;;;;19.90;50.00;;;;;;5029494;28;19924;-75
2022/04/29 06:11:51;;;;;;;;;;;19.80;50.00;;;;;;5026970;28;19978;-75
2022/04/29 06:14:16;;;;;;;;;;;19.90;50.10;;;;;;5028292;28;20019;-75
2022/04/29 06:16:43;;;;;;;;;;;19.80;50.00;;;;;;5022131;28;20749;-76
2022/04/29 06:19:08;;;;;;;;;;;19.90;50.10;;;;;;5030968;28;20342;-77
2022/04/29 06:21:34;;;;;;;;;;;19.90;50.10;;;;;;5026777;28;19928;-75
2022/04/29 06:23:59;;;;;;;;;;;19.90;50.20;;;;;;5033635;28;19920;-76
2022/04/29 06:26:25;;;;;;;;;;;19.90;50.20;;;;;;5010568;28;20018;-77
2022/04/29 06:28:50;;;;;;;;;;;19.90;50.20;;;;;;5035571;28;19924;-72
2022/04/29 06:31:16;;;;;;;;;;;19.90;50.20;;;;;;5049633;28;20003;-75
2022/04/29 06:33:41;;;;;;;;;;;19.90;50.00;;;;;;5052931;28;19924;-76
2022/04/29 06:36:07;;;;;;;;;;;19.90;50.00;;;;;;5051943;28;19932;-75
2022/04/29 06:38:32;;;;;;;;;;;19.90;49.80;;;;;;5035642;28;19932;-75
2022/04/29 06:40:58;;;;;;;;;;;19.90;49.80;;;;;;5034245;28;19924;-77
2022/04/29 06:43:24;;;;;;;;;;;19.90;49.80;;;;;;5049602;28;19929;-76
2022/04/29 06:45:50;;;;;;;;;;;19.90;49.80;;;;;;5039466;28;19930;-81
2022/04/29 06:48:15;;;;;;;;;;;19.90;50.00;;;;;;5039890;28;19964;-81
2022/04/29 06:50:41;;;;;;;;;;;20.00;50.20;;;;;;5042101;28;19936;-81
2022/04/29 06:53:07;;;;;;;;;;;20.00;50.30;;;;;;5020188;28;19924;-80
2022/04/29 06:55:39;;;;;;;;;;;20.00;50.30;;;;;;5040062;28;19924;-81
2022/04/29 06:58:05;;;;;;;;;;;20.00;50.40;;;;;;5022137;28;19924;-74
2022/04/29 07:00:31;;;;;;;;;;;20.00;50.50;;;;;;5035638;28;20541;-78
2022/04/29 07:02:56;;;;;;;;;;;20.00;50.50;;;;;;5040601;28;19920;-78
2022/04/29 07:05:23;;;;;;;;;;;20.00;50.50;;;;;;5041156;28;20420;-81
2022/04/29 07:07:49;;;;;;;;;;;20.10;50.70;;;;;;5042557;28;19921;-75
2022/04/29 07:10:15;;;;;;;;;;;20.10;50.70;;;;;;5036922;28;19924;-75
2022/04/29 07:12:42;;;;;;;;;;;20.00;50.70;;;;;;5027784;28;19970;-75
2022/04/29 07:15:08;;;;;;;;;;;20.00;50.60;;;;;;5022426;28;19928;-75
2022/04/29 07:17:34;;;;;;;;;;;20.10;50.50;;;;;;5032061;28;20312;-79
2022/04/29 07:19:59;;;;;;;;;;;20.10;50.70;;;;;;5047075;28;20008;-75
2022/04/29 07:22:25;;;;;;;;;;;20.10;50.80;;;;;;5061677;28;19964;-73
2022/04/29 07:24:50;;;;;;;;;;;20.10;50.80;;;;;;5040320;28;20038;-75
2022/04/29 07:27:16;;;;;;;;;;;20.10;50.70;;;;;;5046390;28;20003;-74
2022/04/29 07:29:42;;;;;;;;;;;20.10;50.40;;;;;;5066068;28;19924;-75
2022/04/29 07:32:07;;;;;;;;;;;20.20;50.30;;;;;;5045953;28;19927;-78
2022/04/29 07:42:46;;;;;;;;;;;20.20;50.30;;;;;;5048791;28;19924;-81
2022/04/29 07:45:11;;;;;;;;;;;20.20;50.30;;;;;;5047220;28;19916;-78
2022/04/29 07:47:37;;;;;;;;;;;20.20;50.40;;;;;;5050123;28;20025;-77
2022/04/29 07:50:03;;;;;;;;;;;20.20;50.30;;;;;;5042038;28;19925;-75
2022/04/29 07:52:28;;;;;;;;;;;20.30;50.40;;;;;;5065715;28;20379;-74
2022/04/29 07:54:54;;;;;;;;;;;20.30;50.30;;;;;;5064602;28;19924;-77
2022/04/29 07:57:20;;;;;;;;;;;20.30;50.20;;;;;;5031656;28;21317;-76
2022/04/29 07:59:45;;;;;;;;;;;20.30;50.40;;;;;;5047087;28;20379;-74
2022/04/29 08:02:10;;;;;;;;;;;20.40;50.50;;;;;;5026120;28;19920;-76
2022/04/29 08:04:36;;;;;;;;;;;20.30;50.40;;;;;;5046136;28;19928;-78
2022/04/29 08:07:02;;;;;;;;;;;20.40;50.60;;;;;;5044738;28;19966;-78
2022/04/29 08:09:28;;;;;;;;;;;20.40;50.60;;;;;;5048764;28;20034;-79
2022/04/29 08:11:53;;;;;;;;;;;20.40;50.30;;;;;;5063344;28;20110;-78
2022/04/29 08:14:20;;;;;;;;;;;20.50;50.30;;;;;;5065065;28;19924;-78
2022/04/29 08:16:46;;;;;;;;;;;20.50;50.30;;;;;;5045490;28;19920;-76
2022/04/29 08:19:12;;;;;;;;;;;20.50;50.30;;;;;;5044931;28;19916;-77
2022/04/29 08:21:37;;;;;;;;;;;20.50;50.30;;;;;;5046842;28;19998;-76
2022/04/29 08:24:03;;;;;;;;;;;20.60;50.30;;;;;;5029488;28;19973;-74
2022/04/29 08:26:28;;;;;;;;;;;20.60;50.20;;;;;;5030055;28;19932;-76
2022/04/29 08:28:54;;;;;;;;;;;20.50;50.20;;;;;;5046697;28;20304;-75
2022/04/29 08:31:21;;;;;;;;;;;20.60;50.20;;;;;;5042920;28;19963;-77
2022/04/29 08:33:46;;;;;;;;;;;20.70;50.20;;;;;;5043049;28;19924;-76
2022/04/29 08:36:12;;;;;;;;;;;20.60;50.10;;;;;;5019302;28;19927;-75
2022/04/29 08:38:38;;;;;;;;;;;20.70;50.10;;;;;;5045513;28;19924;-80
2022/04/29 08:41:06;;;;;;;;;;;20.70;50.80;;;;;;5029682;28;19959;-78
2022/04/29 08:43:32;;;;;;;;;;;20.60;49.90;;;;;;5050076;28;20022;-80
2022/04/29 08:45:58;;;;;;;;;;;20.70;49.90;;;;;;5043946;28;19959;-77
2022/04/29 08:48:24;;;;;;;;;;;20.70;50.00;;;;;;5037871;28;20993;-77
2022/04/29 08:50:49;;;;;;;;;;;20.70;50.10;;;;;;5038790;28;19931;-80
2022/04/29 08:53:15;;;;;;;;;;;20.70;50.30;;;;;;5060632;28;19999;-79
2022/04/29 08:58:36;;;;;;;;;;;20.70;50.40;;;;;;5041517;28;20092;-75
2022/04/29 09:01:07;;;;;;;;;;;20.80;50.40;;;;;;5044815;28;19969;-76
2022/04/29 09:03:34;;;;;;;;;;;20.80;50.50;;;;;;5044295;28;20402;-75
2022/04/29 09:06:00;;;;;;;;;;;20.80;50.50;;;;;;5046335;28;19975;-76
2022/04/29 09:08:27;;;;;;;;;;;20.80;50.50;;;;;;5046978;28;20073;-77
2022/04/29 09:10:52;;;;;;;;;;;20.90;50.50;;;;;;5060561;28;19925;-75
2022/04/29 09:13:19;;;;;;;;;;;20.80;50.50;;;;;;5024646;28;20033;-78
2022/04/29 09:15:58;;;;;;;;;;;20.90;50.60;;;;;;5045639;28;19920;-77
2022/04/29 09:18:34;;;;;;;;;;;20.90;50.60;;;;;;5038995;28;19971;-77
2022/04/29 09:21:02;;;;;;;;;;;20.90;50.50;;;;;;5048574;28;19976;-75
2022/04/29 09:23:29;;;;;;;;;;;20.90;50.50;;;;;;5031583;28;19974;-76
2022/04/29 09:25:56;;;;;;;;;;;20.90;50.50;;;;;;5035122;28;20394;-77
2022/04/29 09:28:22;;;;;;;;;;;20.90;50.40;;;;;;5032765;28;19979;-75
2022/04/29 09:30:48;;;;;;;;;;;20.90;50.40;;;;;;5031731;28;19928;-78
2022/04/29 09:33:18;;;;;;;;;;;20.90;50.30;;;;;;5025983;28;19924;-77
2022/04/29 09:35:43;;;;;;;;;;;20.90;50.40;;;;;;5031604;28;19925;-75
2022/04/29 09:40:55;;;;;;;;;;;20.90;50.30;;;;;;5031674;28;19925;-77
2022/04/29 09:43:31;;;;;;;;;;;21.00;50.30;;;;;;5030608;28;19924;-75
2022/04/29 09:46:13;;;;;;;;;;;21.00;50.40;;;;;;5034464;28;19979;-78
2022/04/29 09:48:55;;;;;;;;;;;21.00;50.30;;;;;;5046647;28;19999;-77
2022/04/29 09:51:40;;;;;;;;;;;21.00;50.30;;;;;;5032563;28;19924;-74
2022/04/29 09:54:16;;;;;;;;;;;21.00;50.20;;;;;;5035329;28;19924;-77
2022/04/29 09:56:46;;;;;;;;;;;21.00;50.20;;;;;;5029890;28;19966;-74
2022/04/29 09:59:12;;;;;;;;;;;21.00;50.20;;;;;;5038396;28;20044;-73
2022/04/29 10:01:38;;;;;;;;;;;21.00;50.00;;;;;;5037629;28;19927;-77
2022/04/29 10:04:04;;;;;;;;;;;21.00;50.00;;;;;;5035523;28;20422;-74
2022/04/29 10:06:31;;;;;;;;;;;21.00;49.80;;;;;;5022388;28;19928;-73
2022/04/29 10:08:57;;;;;;;;;;;21.00;49.80;;;;;;5038422;28;19928;-76
2022/04/29 10:11:24;;;;;;;;;;;20.90;49.60;;;;;;5027610;28;19978;-74
2022/04/29 10:13:50;;;;;;;;;;;20.90;49.60;;;;;;5057363;28;20398;-77
2022/04/29 10:16:16;;;;;;;;;;;20.90;49.50;;;;;;5041550;28;20035;-74
2022/04/29 10:21:33;;;;;;;;;;;20.90;49.40;;;;;;5056793;28;20419;-73
2022/04/29 10:23:59;;;;;;;;;;;20.90;49.50;;;;;;5056136;28;20384;-73
2022/04/29 10:26:24;;;;;;;;;;;20.90;49.50;;;;;;5039777;28;19927;-76
2022/04/29 10:28:50;;;;;;;;;;;20.90;49.40;;;;;;5055838;28;19928;-73
2022/04/29 10:31:17;;;;;;;;;;;20.90;49.40;;;;;;5060675;28;19968;-72
2022/04/29 10:33:42;;;;;;;;;;;20.90;49.40;;;;;;5034228;28;19925;-75
2022/04/29 10:36:09;;;;;;;;;;;20.90;49.40;;;;;;5040355;28;20017;-75
2022/04/29 10:38:35;;;;;;;;;;;20.90;49.40;;;;;;5061049;28;20272;-76
2022/04/29 10:41:08;;;;;;;;;;;20.90;49.40;;;;;;5040647;28;20006;-77
2022/04/29 10:43:38;;;;;;;;;;;20.90;49.40;;;;;;5040069;28;20273;-79
2022/04/29 10:46:03;;;;;;;;;;;20.90;49.50;;;;;;5043179;28;20038;-76
2022/04/29 10:48:30;;;;;;;;;;;20.90;49.60;;;;;;5044289;28;20011;-77
2022/04/29 10:50:55;;;;;;;;;;;20.90;49.60;;;;;;5043734;28;19932;-77
2022/04/29 10:53:25;;;;;;;;;;;20.90;49.80;;;;;;5044538;28;19920;-74
2022/04/29 10:55:50;;;;;;;;;;;20.90;49.80;;;;;;5026073;28;19928;-75
2022/04/29 10:58:23;;;;;;;;;;;20.90;49.90;;;;;;5026783;28;19928;-76
2022/04/29 11:00:54;;;;;;;;;;;20.90;49.80;;;;;;5041872;28;19932;-76
2022/04/29 11:03:39;;;;;;;;;;;20.90;49.80;;;;;;5044041;28;19977;-79
2022/04/29 11:06:06;;;;;;;;;;;20.90;49.90;;;;;;5025597;28;19931;-75
2022/04/29 11:08:31;;;;;;;;;;;20.90;49.90;;;;;;5028011;28;19928;-76
2022/04/29 11:10:58;;;;;;;;;;;20.90;49.90;;;;;;5066592;28;19921;-75
2022/04/29 11:13:26;;;;;;;;;;;21.00;49.90;;;;;;5027385;28;20059;-76
2022/04/29 11:15:52;;;;;;;;;;;20.90;49.80;;;;;;5028104;28;20415;-76
2022/04/29 11:18:25;;;;;;;;;;;20.90;49.80;;;;;;5048160;28;20030;-72
2022/04/29 11:20:59;;;;;;;;;;;20.90;49.80;;;;;;5050282;28;19998;-73
2022/04/29 11:26:10;;;;;;;;;;;20.90;49.40;;;;;;5068411;28;19958;-73
2022/04/29 11:28:35;;;;;;;;;;;20.90;49.30;;;;;;5064013;28;19971;-73
2022/04/29 11:31:05;;;;;;;;;;;20.90;48.90;;;;;;5048730;28;20018;-73
2022/04/29 11:33:31;;;;;;;;;;;20.90;48.70;;;;;;5059450;28;19920;-73
2022/04/29 11:36:06;;;;;;;;;;;20.90;48.60;;;;;;5068126;28;19931;-73
2022/04/29 11:38:39;;;;;;;;;;;20.90;48.40;;;;;;5045381;28;20312;-74
2022/04/29 11:41:05;;;;;;;;;;;20.90;48.40;;;;;;5069429;28;19931;-72
2022/04/29 11:43:30;;;;;;;;;;;20.90;48.60;;;;;;5067479;28;19920;-73
2022/04/29 11:46:05;;;;;;;;;;;20.90;48.70;;;;;;5051234;28;19928;-74
2022/04/29 11:48:31;;;;;;;;;;;20.90;48.80;;;;;;5066273;28;19943;-77
2022/04/29 11:50:58;;;;;;;;;;;20.90;49.00;;;;;;5050631;28;19989;-77
2022/04/29 11:53:23;;;;;;;;;;;20.90;49.10;;;;;;5048070;28;19924;-74
2022/04/29 11:55:52;;;;;;;;;;;20.90;49.20;;;;;;5040532;28;19927;-75
2022/04/29 11:58:18;;;;;;;;;;;20.90;49.20;;;;;;5020333;28;19931;-71
2022/04/29 12:00:51;;;;;;;;;;;20.90;49.40;;;;;;5019728;28;19921;-74
2022/04/29 12:03:20;;;;;;;;;;;20.90;49.50;;;;;;5057696;28;19924;-73
2022/04/29 12:05:46;;;;;;;;;;;20.90;49.50;;;;;;5047688;28;20390;-74
2022/04/29 12:08:12;;;;;;;;;;;20.90;49.50;;;;;;5063442;28;19981;-72
2022/04/29 12:10:37;;;;;;;;;;;20.90;49.50;;;;;;5036439;28;19943;-73
2022/04/29 12:13:04;;;;;;;;;;;20.90;49.50;;;;;;5034252;28;20347;-73
2022/04/29 12:15:36;;;;;;;;;;;21.00;49.50;;;;;;5052505;28;20504;-72
2022/04/29 12:18:09;;;;;;;;;;;21.00;49.60;;;;;;5040684;28;20007;-74
2022/04/29 12:20:35;;;;;;;;;;;21.00;49.70;;;;;;5023316;28;19921;-73
2022/04/29 12:23:16;;;;;;;;;;;21.00;49.80;;;;;;5054020;28;20383;-74
2022/04/29 12:25:48;;;;;;;;;;;21.00;49.70;;;;;;5039579;28;19959;-74
2022/04/29 12:28:16;;;;;;;;;;;21.00;49.80;;;;;;5029325;28;20023;-75
2022/04/29 12:36:27;;;;;;;;;;;21.10;49.70;;;;;;5040758;28;19920;-76
2022/04/29 12:39:02;;;;;;;;;;;21.00;49.70;;;;;;5035373;28;20011;-78
2022/04/29 12:41:27;;;;;;;;;;;21.00;49.80;;;;;;5045618;28;20325;-77
2022/04/29 12:44:05;;;;;;;;;;;21.10;49.90;;;;;;5047333;28;19920;-77
2022/04/29 12:46:30;;;;;;;;;;;21.10;50.00;;;;;;5044679;28;19928;-80
2022/04/29 12:48:56;;;;;;;;;;;21.10;50.10;;;;;;5046153;28;19920;-83
2022/04/29 12:51:24;;;;;;;;;;;21.10;50.20;;;;;;5064946;28;19925;-79
2022/04/29 12:53:50;;;;;;;;;;;21.10;50.40;;;;;;5047690;28;20371;-76
2022/04/29 12:56:26;;;;;;;;;;;21.20;50.50;;;;;;5047932;28;20073;-76
2022/04/29 12:58:51;;;;;;;;;;;21.20;50.50;;;;;;5048837;28;19974;-81
2022/04/29 13:01:17;;;;;;;;;;;21.20;50.50;;;;;;5041990;28;19974;-75
2022/04/29 13:03:47;;;;;;;;;;;21.20;50.50;;;;;;5042237;28;19924;-75
2022/04/29 13:06:13;;;;;;;;;;;21.20;50.60;;;;;;5044194;28;20317;-75
2022/04/29 13:08:39;;;;;;;;;;;21.20;50.70;;;;;;5048754;28;19924;-78
2022/04/29 13:11:04;;;;;;;;;;;21.30;50.70;;;;;;5041791;28;19920;-79
2022/04/29 13:13:30;;;;;;;;;;;21.30;50.80;;;;;;5048890;28;20295;-81
2022/04/29 13:15:56;;;;;;;;;;;21.30;50.80;;;;;;5047452;28;19932;-80
2022/04/29 13:18:25;;;;;;;;;;;21.30;50.80;;;;;;5047062;28;20866;-76
2022/04/29 13:20:52;;;;;;;;;;;21.30;50.80;;;;;;5047043;28;20379;-77
2022/04/29 13:23:17;;;;;;;;;;;21.30;50.80;;;;;;5028137;28;20053;-77
2022/04/29 13:25:43;;;;;;;;;;;21.40;50.90;;;;;;5064651;28;20392;-75
2022/04/29 13:28:09;;;;;;;;;;;21.30;50.90;;;;;;5042499;28;19920;-74
2022/04/29 13:30:35;;;;;;;;;;;21.40;50.90;;;;;;5063819;28;19921;-75
2022/04/29 13:33:00;;;;;;;;;;;21.40;50.90;;;;;;5044801;28;20368;-77
2022/04/29 13:35:26;;;;;;;;;;;21.40;50.80;;;;;;5045810;28;20053;-77
2022/04/29 13:37:51;;;;;;;;;;;21.50;50.80;;;;;;5061776;28;19925;-74
2022/04/29 13:40:17;;;;;;;;;;;21.50;50.50;;;;;;5028599;28;20672;-75
2022/04/29 13:42:42;;;;;;;;;;;21.50;50.50;;;;;;5047566;28;19933;-73
2022/04/29 13:45:10;;;;;;;;;;;21.50;50.40;;;;;;5042830;28;20619;-75
2022/04/29 13:47:36;;;;;;;;;;;21.60;50.20;;;;;;5031297;28;19932;-77
2022/04/29 13:50:02;;;;;;;;;;;21.60;50.10;;;;;;5063897;28;20468;-75
2022/04/29 13:55:12;;;;;;;;;;;21.60;50.20;;;;;;5045324;28;19959;-77
2022/04/29 13:57:39;;;;;;;;;;;21.60;50.30;;;;;;5029863;28;19959;-76
2022/04/29 14:00:05;;;;;;;;;;;21.60;50.20;;;;;;5046270;28;19924;-77
2022/04/29 14:02:31;;;;;;;;;;;21.60;50.30;;;;;;5045318;28;19925;-74
2022/04/29 14:04:56;;;;;;;;;;;21.60;50.30;;;;;;5047456;28;20411;-74
2022/04/29 14:07:22;;;;;;;;;;;21.60;50.20;;;;;;5046165;28;20008;-75
2022/04/29 14:09:48;;;;;;;;;;;21.60;50.20;;;;;;5046332;28;20338;-74
2022/04/29 14:12:13;;;;;;;;;;;21.70;50.30;;;;;;5046443;28;19988;-74
2022/04/29 14:14:39;;;;;;;;;;;21.70;50.40;;;;;;5044956;28;19931;-75
2022/04/29 14:17:05;;;;;;;;;;;21.70;50.40;;;;;;5045792;28;19924;-74
2022/04/29 14:19:31;;;;;;;;;;;21.70;50.50;;;;;;5025744;28;19924;-72
2022/04/29 14:21:56;;;;;;;;;;;21.70;50.50;;;;;;5044970;28;20007;-75
2022/04/29 14:24:22;;;;;;;;;;;21.80;50.30;;;;;;5031439;28;20283;-75
2022/04/29 14:26:47;;;;;;;;;;;21.70;50.20;;;;;;5044539;28;19929;-76
2022/04/29 14:29:14;;;;;;;;;;;21.70;50.20;;;;;;5041802;28;20719;-75
2022/04/29 14:31:39;;;;;;;;;;;21.70;50.00;;;;;;5045930;28;19955;-77
2022/04/29 14:34:05;;;;;;;;;;;21.70;49.90;;;;;;5038526;28;20395;-73
2022/04/29 14:36:32;;;;;;;;;;;21.70;49.70;;;;;;5024466;28;19920;-74
2022/04/29 14:38:58;;;;;;;;;;;21.70;49.60;;;;;;5040047;28;19988;-74
2022/04/29 14:41:24;;;;;;;;;;;21.60;49.50;;;;;;5043204;28;20386;-78
2022/04/29 14:43:49;;;;;;;;;;;21.60;49.40;;;;;;5040602;28;19924;-79
2022/04/29 14:46:15;;;;;;;;;;;21.60;49.40;;;;;;5043637;28;19973;-81